createdAt,value
2019-05-29T00:00:14.789Z,9.72
2019-05-29T00:01:19.858Z,9.72
2019-05-29T00:02:15.766Z,9.67
2019-05-29T00:03:14.756Z,9.63
2019-05-29T00:04:14.746Z,9.60
2019-05-29T00:05:14.734Z,9.59
2019-05-29T00:06:14.724Z,9.57
2019-05-29T00:07:14.729Z,9.56
2019-05-29T00:08:14.800Z,9.54
2019-05-29T00:09:14.694Z,9.53
2019-05-29T00:10:14.681Z,9.53
2019-05-29T00:11:14.668Z,9.50
2019-05-29T00:12:19.318Z,9.48
2019-05-29T00:13:15.659Z,9.47
2019-05-29T00:14:22.603Z,9.46
2019-05-29T00:15:15.622Z,9.43
2019-05-29T00:16:14.613Z,9.43
2019-05-29T00:17:14.738Z,9.41
2019-05-29T00:18:14.679Z,9.39
2019-05-29T00:19:14.667Z,9.39
2019-05-29T00:20:14.709Z,9.37
2019-05-29T00:21:14.757Z,9.36
2019-05-29T00:22:14.590Z,9.34
2019-05-29T00:23:14.716Z,9.32
2019-05-29T00:24:14.526Z,9.31
2019-05-29T00:25:14.807Z,9.28
2019-05-29T00:26:14.644Z,9.26
2019-05-29T00:27:15.607Z,9.23
2019-05-29T00:28:14.906Z,9.22
2019-05-29T00:29:14.472Z,9.19
2019-05-29T00:30:15.017Z,9.18
2019-05-29T00:31:14.462Z,9.17
2019-05-29T00:32:15.166Z,9.15
2019-05-29T00:33:14.580Z,9.13
2019-05-29T00:34:15.253Z,9.12
2019-05-29T00:35:14.455Z,9.10
2019-05-29T00:36:14.488Z,9.08
2019-05-29T00:37:14.648Z,9.07
2019-05-29T00:38:14.750Z,9.07
2019-05-29T00:39:14.807Z,9.05
2019-05-29T00:40:15.084Z,9.04
2019-05-29T00:41:15.083Z,9.02
2019-05-29T00:42:14.751Z,9.01
2019-05-29T00:43:15.503Z,9.00
2019-05-29T00:44:15.361Z,8.98
2019-05-29T00:45:15.529Z,8.96
2019-05-29T00:46:15.493Z,8.94
2019-05-29T00:47:14.281Z,8.91
2019-05-29T00:48:14.270Z,8.90
2019-05-29T00:49:14.273Z,8.89
2019-05-29T00:50:14.249Z,8.87
2019-05-29T00:51:15.092Z,8.86
2019-05-29T00:52:14.368Z,8.86
2019-05-29T00:53:14.334Z,8.84
2019-05-29T00:54:14.481Z,8.81
2019-05-29T00:55:14.679Z,8.80
2019-05-29T00:56:14.668Z,8.80
2019-05-29T00:57:15.334Z,8.75
2019-05-29T00:58:14.913Z,8.75
2019-05-29T00:59:15.105Z,8.73
2019-05-29T01:00:15.210Z,8.71
2019-05-29T01:01:15.406Z,8.69
2019-05-29T01:02:14.123Z,8.69
2019-05-29T01:03:14.116Z,8.67
2019-05-29T01:04:14.102Z,8.65
2019-05-29T01:05:14.091Z,8.64
2019-05-29T01:06:14.080Z,8.64
2019-05-29T01:07:14.218Z,8.62
2019-05-29T01:08:14.517Z,8.60
2019-05-29T01:09:14.425Z,8.60
2019-05-29T01:10:14.681Z,8.58
2019-05-29T01:11:14.706Z,8.58
2019-05-29T01:12:14.795Z,8.56
2019-05-29T01:13:15.083Z,8.56
2019-05-29T01:14:15.115Z,8.54
2019-05-29T01:15:13.984Z,8.54
2019-05-29T01:16:13.975Z,8.53
2019-05-29T01:17:13.963Z,8.53
2019-05-29T01:18:13.952Z,8.52
2019-05-29T01:19:13.958Z,8.51
2019-05-29T01:20:14.064Z,8.50
2019-05-29T01:21:13.919Z,8.50
2019-05-29T01:22:14.140Z,8.48
2019-05-29T01:23:14.185Z,8.47
2019-05-29T01:24:14.205Z,8.47
2019-05-29T01:25:14.463Z,8.46
2019-05-29T01:26:14.520Z,8.44
2019-05-29T01:27:15.080Z,8.44
2019-05-29T01:28:14.703Z,8.40
2019-05-29T01:29:14.932Z,8.39
2019-05-29T01:30:15.025Z,8.37
2019-05-29T01:31:13.821Z,8.36
2019-05-29T01:32:13.834Z,8.34
2019-05-29T01:33:17.525Z,8.32
2019-05-29T01:34:15.666Z,8.30
2019-05-29T01:35:13.824Z,8.29
2019-05-29T01:36:13.893Z,8.28
2019-05-29T01:37:13.988Z,8.27
2019-05-29T01:38:13.736Z,8.25
2019-05-29T01:39:13.724Z,8.23
2019-05-29T01:40:20.106Z,8.23
2019-05-29T01:41:15.104Z,8.23
2019-05-29T01:42:13.692Z,8.20
2019-05-29T01:43:13.692Z,8.20
2019-05-29T01:44:13.675Z,8.19
2019-05-29T01:45:13.659Z,8.18
2019-05-29T01:46:13.648Z,8.18
2019-05-29T01:47:13.636Z,8.18
2019-05-29T01:48:13.627Z,8.15
2019-05-29T01:49:13.626Z,8.14
2019-05-29T01:50:13.604Z,8.12
2019-05-29T01:51:13.595Z,8.12
2019-05-29T01:52:13.585Z,8.11
2019-05-29T01:53:13.571Z,8.10
2019-05-29T01:54:13.560Z,8.09
2019-05-29T01:55:13.559Z,8.08
2019-05-29T01:56:13.541Z,8.06
2019-05-29T01:57:13.527Z,8.05
2019-05-29T01:58:13.554Z,8.04
2019-05-29T01:59:13.508Z,8.02
2019-05-29T02:00:13.496Z,8.01
2019-05-29T02:01:13.493Z,8.01
2019-05-29T02:02:13.481Z,7.99
2019-05-29T02:03:13.461Z,7.99
2019-05-29T02:04:13.455Z,7.96
2019-05-29T02:05:13.446Z,7.94
2019-05-29T02:06:13.430Z,7.93
2019-05-29T02:07:13.431Z,7.91
2019-05-29T02:08:13.413Z,7.90
2019-05-29T02:09:13.409Z,7.88
2019-05-29T02:10:13.392Z,7.86
2019-05-29T02:11:13.375Z,7.85
2019-05-29T02:12:13.367Z,7.83
2019-05-29T02:13:13.364Z,7.82
2019-05-29T02:14:13.352Z,7.82
2019-05-29T02:15:23.916Z,7.81
2019-05-29T02:16:14.320Z,7.80
2019-05-29T02:17:13.310Z,7.79
2019-05-29T02:18:13.300Z,7.78
2019-05-29T02:19:13.305Z,7.77
2019-05-29T02:20:13.287Z,7.76
2019-05-29T02:21:13.266Z,7.74
2019-05-29T02:22:13.266Z,7.74
2019-05-29T02:23:13.245Z,7.72
2019-05-29T02:24:13.234Z,7.72
2019-05-29T02:25:15.960Z,7.72
2019-05-29T02:26:13.219Z,7.70
2019-05-29T02:27:13.203Z,7.69
2019-05-29T02:28:13.189Z,7.69
2019-05-29T02:29:13.179Z,7.69
2019-05-29T02:30:13.169Z,7.68
2019-05-29T02:31:13.168Z,7.68
2019-05-29T02:32:13.151Z,7.67
2019-05-29T02:33:13.139Z,7.67
2019-05-29T02:34:13.125Z,7.66
2019-05-29T02:35:13.114Z,7.66
2019-05-29T02:36:13.113Z,7.64
2019-05-29T02:37:13.101Z,7.65
2019-05-29T02:38:13.085Z,7.62
2019-05-29T02:39:13.074Z,7.60
2019-05-29T02:40:13.059Z,7.60
2019-05-29T02:41:13.049Z,7.60
2019-05-29T02:42:13.038Z,7.59
2019-05-29T02:43:13.041Z,7.59
2019-05-29T02:44:13.019Z,7.58
2019-05-29T02:45:13.007Z,7.57
2019-05-29T02:46:12.996Z,7.56
2019-05-29T02:47:12.984Z,7.56
2019-05-29T02:48:12.973Z,7.54
2019-05-29T02:49:12.973Z,7.54
2019-05-29T02:50:12.957Z,7.54
2019-05-29T02:51:12.941Z,7.54
2019-05-29T02:52:12.934Z,7.52
2019-05-29T02:53:12.922Z,7.50
2019-05-29T02:54:12.911Z,7.49
2019-05-29T02:55:12.912Z,7.49
2019-05-29T02:56:12.892Z,7.48
2019-05-29T02:57:12.880Z,7.46
2019-05-29T02:58:12.869Z,7.44
2019-05-29T02:59:12.858Z,7.44
2019-05-29T03:00:12.850Z,7.44
2019-05-29T03:01:12.847Z,7.44
2019-05-29T03:02:12.828Z,7.43
2019-05-29T03:03:12.816Z,7.43
2019-05-29T03:04:12.806Z,7.44
2019-05-29T03:05:12.795Z,7.44
2019-05-29T03:06:12.784Z,7.44
2019-05-29T03:07:12.786Z,7.44
2019-05-29T03:08:12.763Z,7.43
2019-05-29T03:09:12.755Z,7.43
2019-05-29T03:10:12.745Z,7.44
2019-05-29T03:11:12.733Z,7.44
2019-05-29T03:12:12.726Z,7.45
2019-05-29T03:13:12.730Z,7.44
2019-05-29T03:14:12.702Z,7.45
2019-05-29T03:15:12.690Z,7.46
2019-05-29T03:16:13.317Z,7.46
2019-05-29T03:17:12.677Z,7.47
2019-05-29T03:18:12.657Z,7.47
2019-05-29T03:19:12.660Z,7.47
2019-05-29T03:20:12.637Z,7.49
2019-05-29T03:21:12.629Z,7.50
2019-05-29T03:22:12.624Z,7.50
2019-05-29T03:23:12.605Z,7.51
2019-05-29T03:24:12.597Z,7.52
2019-05-29T03:25:12.601Z,7.51
2019-05-29T03:26:12.575Z,7.52
2019-05-29T03:27:12.564Z,7.53
2019-05-29T03:28:12.560Z,7.53
2019-05-29T03:29:12.545Z,7.54
2019-05-29T03:30:12.537Z,7.55
2019-05-29T03:31:12.531Z,7.56
2019-05-29T03:32:14.497Z,7.57
2019-05-29T03:33:12.501Z,7.56
2019-05-29T03:34:12.491Z,7.57
2019-05-29T03:35:12.485Z,7.57
2019-05-29T03:36:12.470Z,7.58
2019-05-29T03:37:12.468Z,7.59
2019-05-29T03:38:12.450Z,7.59
2019-05-29T03:39:12.439Z,7.62
2019-05-29T03:40:12.452Z,7.63
2019-05-29T03:41:12.418Z,7.65
2019-05-29T03:42:12.406Z,7.66
2019-05-29T03:43:12.406Z,7.69
2019-05-29T03:44:12.395Z,7.74
2019-05-29T03:45:12.377Z,7.75
2019-05-29T03:46:29.103Z,7.80
2019-05-29T03:47:13.354Z,7.85
2019-05-29T03:48:12.350Z,7.92
2019-05-29T03:49:12.376Z,7.97
2019-05-29T03:50:15.654Z,8.04
2019-05-29T03:51:12.322Z,8.11
2019-05-29T03:52:12.302Z,8.19
2019-05-29T03:53:12.291Z,8.25
2019-05-29T03:54:12.279Z,8.35
2019-05-29T03:55:12.279Z,8.42
2019-05-29T03:56:12.274Z,8.51
2019-05-29T03:57:12.248Z,8.59
2019-05-29T03:58:12.236Z,8.72
2019-05-29T03:59:12.223Z,8.85
2019-05-29T04:00:12.213Z,9.00
2019-05-29T04:01:12.228Z,9.18
2019-05-29T04:02:12.191Z,9.36
2019-05-29T04:03:12.181Z,9.57
2019-05-29T04:04:12.169Z,9.84
2019-05-29T04:05:12.158Z,10.19
2019-05-29T04:06:12.148Z,10.55
2019-05-29T04:07:12.146Z,10.97
2019-05-29T04:08:12.130Z,11.40
2019-05-29T04:09:12.116Z,11.83
2019-05-29T04:10:12.105Z,12.26
2019-05-29T04:11:12.094Z,12.70
2019-05-29T04:12:12.083Z,13.13
2019-05-29T04:13:12.088Z,13.54
2019-05-29T04:14:12.070Z,13.98
2019-05-29T04:15:12.061Z,14.39
2019-05-29T04:16:12.040Z,14.80
2019-05-29T04:17:12.030Z,15.20
2019-05-29T04:18:12.024Z,15.61
2019-05-29T04:19:12.033Z,16.01
2019-05-29T04:20:11.996Z,16.39
2019-05-29T04:21:12.089Z,16.79
2019-05-29T04:22:11.978Z,17.17
2019-05-29T04:23:11.972Z,17.55
2019-05-29T04:24:11.954Z,17.92
2019-05-29T04:25:11.955Z,18.28
2019-05-29T04:26:11.932Z,18.62
2019-05-29T04:27:11.920Z,18.98
2019-05-29T04:28:11.910Z,19.34
2019-05-29T04:29:11.904Z,19.67
2019-05-29T04:30:11.888Z,20.00
2019-05-29T04:31:11.895Z,20.35
2019-05-29T04:32:11.865Z,20.71
2019-05-29T04:33:11.862Z,21.07
2019-05-29T04:34:11.847Z,21.42
2019-05-29T04:35:11.834Z,21.75
2019-05-29T04:36:11.824Z,22.11
2019-05-29T04:37:11.827Z,22.44
2019-05-29T04:38:11.804Z,22.77
2019-05-29T04:39:11.789Z,23.08
2019-05-29T04:40:11.778Z,23.41
2019-05-29T04:41:11.768Z,23.72
2019-05-29T04:42:11.762Z,24.02
2019-05-29T04:43:11.760Z,24.30
2019-05-29T04:44:11.736Z,24.61
2019-05-29T04:45:11.724Z,24.88
2019-05-29T04:46:11.714Z,25.14
2019-05-29T04:47:12.444Z,25.41
2019-05-29T04:48:11.692Z,25.67
2019-05-29T04:49:11.694Z,25.94
2019-05-29T04:50:11.678Z,26.21
2019-05-29T04:51:11.675Z,26.47
2019-05-29T04:52:11.650Z,26.73
2019-05-29T04:53:11.639Z,26.98
2019-05-29T04:54:11.752Z,27.25
2019-05-29T04:55:11.631Z,27.48
2019-05-29T04:56:11.606Z,27.70
2019-05-29T04:57:11.595Z,27.92
2019-05-29T04:58:11.583Z,28.14
2019-05-29T04:59:11.572Z,28.32
2019-05-29T05:00:11.561Z,28.51
2019-05-29T05:01:11.566Z,28.70
2019-05-29T05:02:11.547Z,28.90
2019-05-29T05:03:11.529Z,29.06
2019-05-29T05:04:11.520Z,29.20
2019-05-29T05:05:11.510Z,29.31
2019-05-29T05:06:11.521Z,29.40
2019-05-29T05:07:11.503Z,29.50
2019-05-29T05:08:11.483Z,29.62
2019-05-29T05:09:11.517Z,29.73
2019-05-29T05:10:11.452Z,29.86
2019-05-29T05:11:11.454Z,29.99
2019-05-29T05:12:11.430Z,30.11
2019-05-29T05:13:11.438Z,30.25
2019-05-29T05:14:11.410Z,30.34
2019-05-29T05:15:11.402Z,30.47
2019-05-29T05:16:11.387Z,30.58
2019-05-29T05:17:25.177Z,30.71
2019-05-29T05:18:12.378Z,30.83
2019-05-29T05:19:11.355Z,30.98
2019-05-29T05:20:11.345Z,31.11
2019-05-29T05:21:11.333Z,31.26
2019-05-29T05:22:11.323Z,31.39
2019-05-29T05:23:11.312Z,31.50
2019-05-29T05:24:11.312Z,31.58
2019-05-29T05:25:11.290Z,31.69
2019-05-29T05:26:11.278Z,31.81
2019-05-29T05:27:11.269Z,31.94
2019-05-29T05:28:11.256Z,32.06
2019-05-29T05:29:11.246Z,32.15
2019-05-29T05:30:11.245Z,32.23
2019-05-29T05:31:11.233Z,32.37
2019-05-29T05:32:11.214Z,32.49
2019-05-29T05:33:11.203Z,32.62
2019-05-29T05:34:11.192Z,32.78
2019-05-29T05:35:14.366Z,32.93
2019-05-29T05:36:11.181Z,33.13
2019-05-29T05:37:11.159Z,33.33
2019-05-29T05:38:11.148Z,33.50
2019-05-29T05:39:11.137Z,33.66
2019-05-29T05:40:11.132Z,33.71
2019-05-29T05:41:11.190Z,33.77
2019-05-29T05:42:11.117Z,33.84
2019-05-29T05:43:23.169Z,33.96
2019-05-29T05:44:12.082Z,34.07
2019-05-29T05:45:11.073Z,34.19
2019-05-29T05:46:11.098Z,34.34
2019-05-29T05:47:11.050Z,34.45
2019-05-29T05:48:11.053Z,34.58
2019-05-29T05:49:11.029Z,34.72
2019-05-29T05:50:11.020Z,34.85
2019-05-29T05:51:11.013Z,34.97
2019-05-29T05:52:10.998Z,35.04
2019-05-29T05:53:10.987Z,35.12
2019-05-29T05:54:10.989Z,35.20
2019-05-29T05:55:10.967Z,35.29
2019-05-29T05:56:10.956Z,35.36
2019-05-29T05:57:10.945Z,35.47
2019-05-29T05:58:10.934Z,35.58
2019-05-29T05:59:10.924Z,35.72
2019-05-29T06:00:10.933Z,35.86
2019-05-29T06:01:10.901Z,35.96
2019-05-29T06:02:10.890Z,36.09
2019-05-29T06:03:10.879Z,36.20
2019-05-29T06:04:10.869Z,36.30
2019-05-29T06:05:10.858Z,36.40
2019-05-29T06:06:10.865Z,36.54
2019-05-29T06:07:10.838Z,36.71
2019-05-29T06:08:10.837Z,36.87
2019-05-29T06:09:10.817Z,36.95
2019-05-29T06:10:10.806Z,36.96
2019-05-29T06:11:10.793Z,36.94
2019-05-29T06:12:10.813Z,36.95
2019-05-29T06:13:10.771Z,37.00
2019-05-29T06:14:10.763Z,37.08
2019-05-29T06:15:10.751Z,37.15
2019-05-29T06:16:10.744Z,37.19
2019-05-29T06:17:10.755Z,37.26
2019-05-29T06:18:21.033Z,37.35
2019-05-29T06:19:11.708Z,37.48
2019-05-29T06:20:10.698Z,37.62
2019-05-29T06:21:10.701Z,37.72
2019-05-29T06:22:10.676Z,37.88
2019-05-29T06:23:10.669Z,38.03
2019-05-29T06:24:10.668Z,38.08
2019-05-29T06:25:10.727Z,38.18
2019-05-29T06:26:10.635Z,38.24
2019-05-29T06:27:10.625Z,38.29
2019-05-29T06:28:10.616Z,38.39
2019-05-29T06:29:10.608Z,38.54
2019-05-29T06:30:10.602Z,38.58
2019-05-29T06:31:10.580Z,38.41
2019-05-29T06:32:10.583Z,38.16
2019-05-29T06:33:10.560Z,38.05
2019-05-29T06:34:10.548Z,38.04
2019-05-29T06:35:10.536Z,38.01
2019-05-29T06:36:10.547Z,38.06
2019-05-29T06:37:10.515Z,38.16
2019-05-29T06:38:10.505Z,38.26
2019-05-29T06:39:10.499Z,38.45
2019-05-29T06:40:10.485Z,38.72
2019-05-29T06:41:10.476Z,39.02
2019-05-29T06:42:10.472Z,39.10
2019-05-29T06:43:11.973Z,39.12
2019-05-29T06:44:10.441Z,39.22
2019-05-29T06:45:10.444Z,39.42
2019-05-29T06:46:10.418Z,39.65
2019-05-29T06:47:10.414Z,39.81
2019-05-29T06:48:10.412Z,39.98
2019-05-29T06:49:10.398Z,40.12
2019-05-29T06:50:10.376Z,40.20
2019-05-29T06:51:10.368Z,40.31
2019-05-29T06:52:10.355Z,40.45
2019-05-29T06:53:10.344Z,40.61
2019-05-29T06:54:10.342Z,40.68
2019-05-29T06:55:10.324Z,40.63
2019-05-29T06:56:10.328Z,40.64
2019-05-29T06:57:10.301Z,40.69
2019-05-29T06:58:10.289Z,40.74
2019-05-29T06:59:10.288Z,40.77
2019-05-29T07:00:10.280Z,40.82
2019-05-29T07:01:10.257Z,40.88
2019-05-29T07:02:10.247Z,40.97
2019-05-29T07:03:10.237Z,41.05
2019-05-29T07:04:12.264Z,41.16
2019-05-29T07:05:10.214Z,41.19
2019-05-29T07:06:10.230Z,41.17
2019-05-29T07:07:10.193Z,41.24
2019-05-29T07:08:18.927Z,41.40
2019-05-29T07:09:11.171Z,41.56
2019-05-29T07:10:10.163Z,41.81
2019-05-29T07:11:10.152Z,42.04
2019-05-29T07:12:10.155Z,42.20
2019-05-29T07:13:10.129Z,42.32
2019-05-29T07:14:10.126Z,42.36
2019-05-29T07:15:10.107Z,42.42
2019-05-29T07:16:10.097Z,42.52
2019-05-29T07:17:10.104Z,42.68
2019-05-29T07:18:10.090Z,42.85
2019-05-29T07:19:24.786Z,43.08
2019-05-29T07:20:11.052Z,43.32
2019-05-29T07:21:10.043Z,43.45
2019-05-29T07:22:10.033Z,43.46
2019-05-29T07:23:10.023Z,43.44
2019-05-29T07:24:10.024Z,43.45
2019-05-29T07:25:10.007Z,43.40
2019-05-29T07:26:09.990Z,43.32
2019-05-29T07:27:13.374Z,43.25
2019-05-29T07:28:09.971Z,43.15
2019-05-29T07:29:09.958Z,43.14
2019-05-29T07:30:09.969Z,43.15
2019-05-29T07:31:09.936Z,43.16
2019-05-29T07:32:09.925Z,43.20
2019-05-29T07:33:09.915Z,43.34
2019-05-29T07:34:09.904Z,43.59
2019-05-29T07:35:09.895Z,43.82
2019-05-29T07:36:09.893Z,43.98
2019-05-29T07:37:09.879Z,44.14
2019-05-29T07:38:09.866Z,44.30
2019-05-29T07:39:09.860Z,44.44
2019-05-29T07:40:09.841Z,44.47
2019-05-29T07:41:09.830Z,44.49
2019-05-29T07:42:09.827Z,44.51
2019-05-29T07:43:09.807Z,44.54
2019-05-29T07:44:09.800Z,44.40
2019-05-29T07:45:09.786Z,44.31
2019-05-29T07:46:09.776Z,44.31
2019-05-29T07:47:10.093Z,44.34
2019-05-29T07:48:09.765Z,44.46
2019-05-29T07:49:09.745Z,44.56
2019-05-29T07:50:09.733Z,44.64
2019-05-29T07:51:09.725Z,44.68
2019-05-29T07:52:09.711Z,44.69
2019-05-29T07:53:09.701Z,44.68
2019-05-29T07:54:09.710Z,44.49
2019-05-29T07:55:09.947Z,44.32
2019-05-29T07:56:22.259Z,44.11
2019-05-29T07:57:10.658Z,43.94
2019-05-29T07:58:09.648Z,43.73
2019-05-29T07:59:09.638Z,43.45
2019-05-29T08:00:09.639Z,43.23
2019-05-29T08:01:13.725Z,42.96
2019-05-29T08:02:09.604Z,42.80
2019-05-29T08:03:09.597Z,42.70
2019-05-29T08:04:09.588Z,42.56
2019-05-29T08:05:09.573Z,42.46
2019-05-29T08:06:09.573Z,42.42
2019-05-29T08:07:09.551Z,42.50
2019-05-29T08:08:09.541Z,42.58
2019-05-29T08:09:09.529Z,42.69
2019-05-29T08:10:09.521Z,42.66
2019-05-29T08:11:09.508Z,42.48
2019-05-29T08:12:09.507Z,42.32
2019-05-29T08:13:09.486Z,42.22
2019-05-29T08:14:09.476Z,42.11
2019-05-29T08:15:09.469Z,41.98
2019-05-29T08:16:09.454Z,41.85
2019-05-29T08:17:09.444Z,41.78
2019-05-29T08:18:09.444Z,41.72
2019-05-29T08:19:09.432Z,41.72
2019-05-29T08:20:09.418Z,41.68
2019-05-29T08:21:09.402Z,41.61
2019-05-29T08:22:09.393Z,41.57
2019-05-29T08:23:09.383Z,41.58
2019-05-29T08:24:09.381Z,41.61
2019-05-29T08:25:09.360Z,41.61
2019-05-29T08:26:09.354Z,41.61
2019-05-29T08:27:09.342Z,41.53
2019-05-29T08:28:09.330Z,41.28
2019-05-29T08:29:09.320Z,41.09
2019-05-29T08:30:09.317Z,40.99
2019-05-29T08:31:09.298Z,40.87
2019-05-29T08:32:09.287Z,40.69
2019-05-29T08:33:09.275Z,40.51
2019-05-29T08:34:09.266Z,40.29
2019-05-29T08:35:09.274Z,40.10
2019-05-29T08:36:09.257Z,39.90
2019-05-29T08:37:09.232Z,39.61
2019-05-29T08:38:09.224Z,39.33
2019-05-29T08:39:09.211Z,39.08
2019-05-29T08:40:09.201Z,38.80
2019-05-29T08:41:09.192Z,38.45
2019-05-29T08:42:22.515Z,38.11
2019-05-29T08:43:10.171Z,37.68
2019-05-29T08:44:09.160Z,37.20
2019-05-29T08:45:09.152Z,36.84
2019-05-29T08:46:09.137Z,36.54
2019-05-29T08:47:10.845Z,36.21
2019-05-29T08:48:09.127Z,35.89
2019-05-29T08:49:09.107Z,35.67
2019-05-29T08:50:18.090Z,35.55
2019-05-29T08:51:10.084Z,35.44
2019-05-29T08:52:12.176Z,35.35
2019-05-29T08:53:09.064Z,35.22
2019-05-29T08:54:23.474Z,35.08
2019-05-29T08:55:10.041Z,34.96
2019-05-29T08:56:09.032Z,34.83
2019-05-29T08:57:09.027Z,34.77
2019-05-29T08:58:09.012Z,34.79
2019-05-29T08:59:09.007Z,34.84
2019-05-29T09:00:09.008Z,34.89
2019-05-29T09:01:08.977Z,34.90
2019-05-29T09:02:08.982Z,34.95
2019-05-29T09:03:08.960Z,35.03
2019-05-29T09:04:08.947Z,35.09
2019-05-29T09:05:08.935Z,35.16
2019-05-29T09:06:11.470Z,35.19
2019-05-29T09:07:08.914Z,35.26
2019-05-29T09:08:08.904Z,35.34
2019-05-29T09:09:08.893Z,35.47
2019-05-29T09:10:08.882Z,35.56
2019-05-29T09:11:08.880Z,35.63
2019-05-29T09:12:08.875Z,35.71
2019-05-29T09:13:08.850Z,35.81
2019-05-29T09:14:08.842Z,35.84
2019-05-29T09:15:09.489Z,35.77
2019-05-29T09:16:08.819Z,35.64
2019-05-29T09:17:08.807Z,35.45
2019-05-29T09:18:08.810Z,35.23
2019-05-29T09:19:08.787Z,35.09
2019-05-29T09:20:25.416Z,35.02
2019-05-29T09:21:09.770Z,35.02
2019-05-29T09:22:08.754Z,35.07
2019-05-29T09:23:08.743Z,35.16
2019-05-29T09:24:08.744Z,35.30
2019-05-29T09:25:08.722Z,35.42
2019-05-29T09:26:15.753Z,35.57
2019-05-29T09:27:09.700Z,35.68
2019-05-29T09:28:08.699Z,35.78
2019-05-29T09:29:08.680Z,35.91
2019-05-29T09:30:08.681Z,35.93
2019-05-29T09:31:08.679Z,35.85
2019-05-29T09:32:08.648Z,35.77
2019-05-29T09:33:08.639Z,35.69
2019-05-29T09:34:08.627Z,35.65
2019-05-29T09:35:08.617Z,35.63
2019-05-29T09:36:08.617Z,35.49
2019-05-29T09:37:08.595Z,35.37
2019-05-29T09:38:08.584Z,35.26
2019-05-29T09:39:08.574Z,35.15
2019-05-29T09:40:08.563Z,35.11
2019-05-29T09:41:08.554Z,35.11
2019-05-29T09:42:08.552Z,35.15
2019-05-29T09:43:08.532Z,35.23
2019-05-29T09:44:08.521Z,35.25
2019-05-29T09:45:08.510Z,35.21
2019-05-29T09:46:08.503Z,35.20
2019-05-29T09:47:08.489Z,35.21
2019-05-29T09:48:08.509Z,35.24
2019-05-29T09:49:08.467Z,35.33
2019-05-29T09:50:08.457Z,35.41
2019-05-29T09:52:09.433Z,35.47
2019-05-29T09:53:08.425Z,35.57
2019-05-29T09:53:44.985Z,35.45
2019-05-29T09:54:08.491Z,35.58
2019-05-29T09:55:08.402Z,35.50
2019-05-29T09:56:08.399Z,35.49
2019-05-29T09:57:08.384Z,35.47
2019-05-29T09:58:08.371Z,35.48
2019-05-29T09:59:08.362Z,35.54
2019-05-29T10:00:08.361Z,35.59
2019-05-29T10:01:21.848Z,35.72
2019-05-29T10:02:09.536Z,35.85
2019-05-29T10:03:08.319Z,36.00
2019-05-29T10:04:08.310Z,36.18
2019-05-29T10:05:08.298Z,36.29
2019-05-29T10:06:09.516Z,36.48
2019-05-29T10:07:08.277Z,36.71
2019-05-29T10:08:08.265Z,36.98
2019-05-29T10:09:08.254Z,37.26
2019-05-29T10:10:08.244Z,37.58
2019-05-29T10:11:10.666Z,37.90
2019-05-29T10:12:08.235Z,38.22
2019-05-29T10:13:08.212Z,38.57
2019-05-29T10:14:08.205Z,38.97
2019-05-29T10:15:08.191Z,39.36
2019-05-29T10:16:08.181Z,39.72
2019-05-29T10:17:12.565Z,40.01
2019-05-29T10:18:28.222Z,40.28
2019-05-29T10:19:09.148Z,40.55
2019-05-29T10:20:08.141Z,40.92
2019-05-29T10:21:08.135Z,41.37
2019-05-29T10:22:08.117Z,41.83
2019-05-29T10:23:08.107Z,42.32
2019-05-29T10:24:08.108Z,42.81
2019-05-29T10:25:08.088Z,43.30
2019-05-29T10:26:08.076Z,43.82
2019-05-29T10:27:08.065Z,44.37
2019-05-29T10:28:08.176Z,44.87
2019-05-29T10:29:09.510Z,45.24
2019-05-29T10:30:08.043Z,45.55
2019-05-29T10:31:08.022Z,45.71
2019-05-29T10:32:08.014Z,45.80
2019-05-29T10:33:08.001Z,45.85
2019-05-29T10:34:08.007Z,45.98
2019-05-29T10:35:07.979Z,46.15
2019-05-29T10:36:07.984Z,46.38
2019-05-29T10:37:07.971Z,46.63
2019-05-29T10:38:07.952Z,46.76
2019-05-29T10:39:07.936Z,46.79
2019-05-29T10:40:07.927Z,46.79
2019-05-29T10:41:07.914Z,46.73
2019-05-29T10:42:07.914Z,46.54
2019-05-29T10:43:07.897Z,46.11
2019-05-29T10:44:07.884Z,45.70
2019-05-29T10:45:07.872Z,45.03
2019-05-29T10:46:07.882Z,43.79
2019-05-29T10:47:07.853Z,42.01
2019-05-29T10:48:07.863Z,39.83
2019-05-29T10:49:07.831Z,37.57
2019-05-29T10:50:07.923Z,35.40
2019-05-29T10:51:07.812Z,33.62
2019-05-29T10:52:15.513Z,32.25
2019-05-29T10:53:08.799Z,31.24
2019-05-29T10:54:07.779Z,30.42
2019-05-29T10:55:07.766Z,29.71
2019-05-29T10:56:07.758Z,29.00
2019-05-29T10:57:07.752Z,28.38
2019-05-29T10:58:07.738Z,27.83
2019-05-29T10:59:07.745Z,27.33
2019-05-29T11:00:07.712Z,26.88
2019-05-29T11:01:07.700Z,26.50
2019-05-29T11:02:07.692Z,26.21
2019-05-29T11:03:07.680Z,25.97
2019-05-29T11:04:07.677Z,25.77
2019-05-29T11:05:07.670Z,25.57
2019-05-29T11:06:07.647Z,25.32
2019-05-29T11:07:07.637Z,25.10
2019-05-29T11:08:07.625Z,24.89
2019-05-29T11:09:07.615Z,24.68
2019-05-29T11:10:07.606Z,24.49
2019-05-29T11:11:07.616Z,24.32
2019-05-29T11:12:07.582Z,24.18
2019-05-29T11:13:07.571Z,24.05
2019-05-29T11:14:07.560Z,23.93
2019-05-29T11:15:20.853Z,23.81
2019-05-29T11:16:08.548Z,23.72
2019-05-29T11:17:07.536Z,23.63
2019-05-29T11:18:07.521Z,23.58
2019-05-29T11:19:07.509Z,23.51
2019-05-29T11:20:07.495Z,23.45
2019-05-29T11:21:07.484Z,23.39
2019-05-29T11:22:25.233Z,23.31
2019-05-29T11:23:08.463Z,23.23
2019-05-29T11:24:07.453Z,23.19
2019-05-29T11:25:21.761Z,23.17
2019-05-29T11:26:08.428Z,23.19
2019-05-29T11:27:07.419Z,23.21
2019-05-29T11:28:07.420Z,23.25
2019-05-29T11:29:07.396Z,23.29
2019-05-29T11:30:07.386Z,23.28
2019-05-29T11:31:07.374Z,23.27
2019-05-29T11:32:07.363Z,23.20
2019-05-29T11:33:07.352Z,23.16
2019-05-29T11:34:07.356Z,23.11
2019-05-29T11:35:07.336Z,23.08
2019-05-29T11:36:12.934Z,23.08
2019-05-29T11:37:08.308Z,23.08
2019-05-29T11:38:07.303Z,23.08
2019-05-29T11:39:07.286Z,23.09
2019-05-29T11:40:07.287Z,23.12
2019-05-29T11:41:24.986Z,23.09
2019-05-29T11:42:08.251Z,23.09
2019-05-29T11:43:07.243Z,23.08
2019-05-29T11:44:07.245Z,23.02
2019-05-29T11:45:07.223Z,22.95
2019-05-29T11:46:07.226Z,22.84
2019-05-29T11:47:07.197Z,22.72
2019-05-29T11:48:07.203Z,22.63
2019-05-29T11:49:07.175Z,22.44
2019-05-29T11:50:18.780Z,22.34
2019-05-29T11:51:08.164Z,22.22
2019-05-29T11:52:23.247Z,22.12
2019-05-29T11:53:08.145Z,22.04
2019-05-29T11:54:07.122Z,21.96
2019-05-29T11:55:08.120Z,21.85
2019-05-29T11:56:07.105Z,21.79
2019-05-29T11:57:07.103Z,21.76
2019-05-29T11:58:07.079Z,21.74
2019-05-29T11:59:07.073Z,21.71
2019-05-29T12:00:17.751Z,21.70
2019-05-29T12:01:08.045Z,21.62
2019-05-29T12:02:07.036Z,21.52
2019-05-29T12:03:07.035Z,21.46
2019-05-29T12:04:23.121Z,21.42
2019-05-29T12:05:08.009Z,21.35
2019-05-29T12:06:07.018Z,21.29
2019-05-29T12:07:06.981Z,21.25
2019-05-29T12:08:06.972Z,21.25
2019-05-29T12:09:06.972Z,21.26
2019-05-29T12:10:07.412Z,21.28
2019-05-29T12:11:07.327Z,21.31
2019-05-29T12:12:06.933Z,21.34
2019-05-29T12:13:06.923Z,21.41
2019-05-29T12:14:06.907Z,21.46
2019-05-29T12:15:12.993Z,21.49
2019-05-29T12:16:07.883Z,21.50
2019-05-29T12:17:06.885Z,21.50
2019-05-29T12:18:22.669Z,21.53
2019-05-29T12:19:07.851Z,21.57
2019-05-29T12:20:26.369Z,21.62
2019-05-29T12:21:07.846Z,21.62
2019-05-29T12:22:06.825Z,21.60
2019-05-29T12:23:24.151Z,21.59
2019-05-29T12:24:07.795Z,21.63
2019-05-29T12:25:06.789Z,21.70
2019-05-29T12:26:20.109Z,21.77
2019-05-29T12:27:07.818Z,21.81
2019-05-29T12:28:06.754Z,21.86
2019-05-29T12:29:11.464Z,21.90
2019-05-29T12:30:07.733Z,21.96
2019-05-29T12:31:06.759Z,22.02
2019-05-29T12:32:09.609Z,22.08
2019-05-29T12:33:06.719Z,22.14
2019-05-29T12:34:18.801Z,22.23
2019-05-29T12:35:07.678Z,22.32
2019-05-29T12:36:06.674Z,22.38
2019-05-29T12:37:06.719Z,22.47
2019-05-29T12:38:06.647Z,22.54
2019-05-29T12:39:06.655Z,22.61
2019-05-29T12:40:06.631Z,22.68
2019-05-29T12:41:06.616Z,22.76
2019-05-29T12:42:06.602Z,22.81
2019-05-29T12:43:06.593Z,22.85
2019-05-29T12:44:06.581Z,22.89
2019-05-29T12:45:06.602Z,22.89
2019-05-29T12:46:06.560Z,22.86
2019-05-29T12:47:06.634Z,22.84
2019-05-29T12:48:13.081Z,22.78
2019-05-29T12:49:07.529Z,22.76
2019-05-29T12:50:06.516Z,22.68
2019-05-29T12:51:06.520Z,22.63
2019-05-29T12:52:08.184Z,22.60
2019-05-29T12:53:06.482Z,22.57
2019-05-29T12:54:06.475Z,22.50
2019-05-29T12:55:06.470Z,22.43
2019-05-29T12:56:06.450Z,22.39
2019-05-29T12:57:06.466Z,22.35
2019-05-29T12:58:06.427Z,22.31
2019-05-29T12:59:06.416Z,22.27
2019-05-29T13:00:06.405Z,22.22